Time;durP1;ratioP1;P1;durP2;ratioP2;P2;SDS_P1;SDS_P2;PMS_P1;PMS_P2;Temp;Humidity;BMP_temperature;BMP_pressure;BME280_temperature;BME280_humidity;BME280_pressure;Samples;Min_cycle;Max_cycle;Signal;HPM_P1;HPM_P2
2022/05/29 00:01:47;;;;;;;0.30;0.30;;;;;;;13.17;60.02;100164.09;5015833;28;20472;-77
2022/05/29 00:04:14;;;;;;;0.30;0.20;;;;;;;12.99;60.58;100163.00;4999195;28;20448;-77
2022/05/29 00:06:43;;;;;;;0.30;0.20;;;;;;;13.11;60.64;100163.44;4997466;28;20464;-77
2022/05/29 00:09:13;;;;;;;0.30;0.20;;;;;;;12.93;61.24;100165.06;5016761;28;20499;-78
2022/05/29 00:11:40;;;;;;;0.30;0.20;;;;;;;12.95;61.84;100165.88;5000129;28;20568;-78
2022/05/29 00:14:07;;;;;;;0.30;0.20;;;;;;;12.95;61.47;100168.53;4998564;28;20488;-78
2022/05/29 00:16:33;;;;;;;0.30;0.20;;;;;;;13.24;60.81;100159.38;5014256;28;20891;-78
2022/05/29 00:19:00;;;;;;;0.30;0.20;;;;;;;13.11;61.08;100163.44;5014915;28;20484;-78
2022/05/29 00:21:30;;;;;;;0.30;0.20;;;;;;;13.15;60.64;100160.59;4998699;28;20502;-78
2022/05/29 00:23:57;;;;;;;0.30;0.20;;;;;;;13.06;61.14;100158.31;5018754;28;20559;-78
2022/05/29 00:26:24;;;;;;;0.30;0.20;;;;;;;12.94;62.11;100156.13;5001553;28;20480;-78
2022/05/29 00:28:50;;;;;;;0.30;0.20;;;;;;;12.94;62.67;100156.13;5001574;28;20456;-78
2022/05/29 00:31:17;;;;;;;0.30;0.20;;;;;;;12.74;63.24;100149.78;5002329;28;20519;-78
2022/05/29 00:33:44;;;;;;;0.30;0.20;;;;;;;12.66;63.52;100145.69;5019436;28;20472;-78
2022/05/29 00:36:15;;;;;;;0.30;0.20;;;;;;;12.65;64.07;100147.50;5001231;28;20510;-77
2022/05/29 00:38:43;;;;;;;0.30;0.20;;;;;;;12.58;64.79;100145.97;4999923;28;20452;-74
2022/05/29 00:41:21;;;;;;;0.30;0.20;;;;;;;12.55;64.69;100140.78;4999121;28;20554;-74
2022/05/29 00:44:13;;;;;;;0.40;0.30;;;;;;;12.58;64.73;100142.44;5016627;28;21012;-74
2022/05/29 00:46:46;;;;;;;0.30;0.20;;;;;;;12.52;64.99;100132.91;4998617;28;20865;-74
2022/05/29 00:49:15;;;;;;;0.30;0.20;;;;;;;12.45;65.04;100132.25;5016160;28;20933;-74
2022/05/29 00:52:25;;;;;;;0.30;0.20;;;;;;;12.65;65.30;100134.16;5016134;28;20472;-74
2022/05/29 00:54:56;;;;;;;0.30;0.20;;;;;;;12.57;65.36;100130.91;5005713;28;20527;-74
2022/05/29 00:57:39;;;;;;;0.30;0.20;;;;;;;12.57;65.13;100127.38;4998433;28;20464;-75
2022/05/29 01:00:08;;;;;;;0.30;0.20;;;;;;;12.58;65.51;100122.00;5016133;28;20497;-74
2022/05/29 01:02:35;;;;;;;0.40;0.30;;;;;;;12.53;65.94;100131.09;5016247;28;20534;-74
2022/05/29 01:05:04;;;;;;;0.30;0.20;;;;;;;12.41;66.07;100121.78;5016199;28;20547;-74
2022/05/29 01:07:32;;;;;;;4.37;3.20;;;;;;;12.42;65.57;100118.19;4998549;28;20945;-74
2022/05/29 01:10:00;;;;;;;0.30;0.20;;;;;;;12.43;65.71;100114.59;5015804;28;21003;-74
2022/05/29 01:12:38;;;;;;;0.30;0.20;;;;;;;12.39;65.90;100115.66;5016047;28;20852;-74
2022/05/29 01:15:08;;;;;;;0.30;0.20;;;;;;;12.42;66.01;100113.72;5015602;28;20491;-74
2022/05/29 01:17:53;;;;;;;0.30;0.20;;;;;;;12.45;66.10;100118.94;4997963;28;20456;-74
2022/05/29 01:20:56;;;;;;;0.30;0.20;;;;;;;12.46;66.40;100119.81;5012764;28;20510;-74
2022/05/29 01:23:55;;;;;;;0.30;0.20;;;;;;;12.38;66.87;100120.13;5015300;28;20519;-74
2022/05/29 01:26:58;;;;;;;0.30;0.20;;;;;;;12.34;67.31;100113.19;5015465;28;20511;-75
2022/05/29 01:30:23;;;;;;;0.30;0.20;;;;;;;12.25;67.25;100116.19;5014287;28;20472;-74
2022/05/29 01:33:09;;;;;;;0.30;0.20;;;;;;;12.36;66.88;100110.44;4958368;28;20541;-74
2022/05/29 01:35:49;;;;;;;0.30;0.20;;;;;;;12.48;66.64;100119.78;5015608;28;20480;-74
2022/05/29 01:38:29;;;;;;;0.30;0.20;;;;;;;12.52;65.72;100118.72;5015091;28;21020;-75
2022/05/29 01:41:11;;;;;;;0.30;0.20;;;;;;;12.64;65.30;100126.22;5014926;28;20452;-74
2022/05/29 01:43:38;;;;;;;0.30;0.20;;;;;;;12.61;65.69;100118.31;5015334;28;20543;-75
2022/05/29 01:46:05;;;;;;;0.30;0.20;;;;;;;12.50;66.42;100116.09;4997320;28;20453;-74
2022/05/29 01:48:35;;;;;;;0.30;0.20;;;;;;;12.50;66.34;100123.25;5015015;28;20449;-74
2022/05/29 01:51:14;;;;;;;0.40;0.30;;;;;;;12.52;66.78;100121.38;5014748;28;20510;-74
2022/05/29 01:53:47;;;;;;;0.30;0.20;;;;;;;12.43;66.58;100111.94;5014946;28;20484;-74
2022/05/29 01:56:18;;;;;;;0.30;0.20;;;;;;;12.37;67.04;100122.84;5015150;28;20492;-74
2022/05/29 01:58:50;;;;;;;0.30;0.20;;;;;;;12.38;67.14;100114.78;5014617;28;20471;-74
2022/05/29 02:01:18;;;;;;;0.30;0.20;;;;;;;12.30;67.62;100113.34;4997295;28;20499;-74
2022/05/29 02:03:50;;;;;;;0.30;0.20;;;;;;;12.32;67.67;100114.13;5014451;28;20472;-74
2022/05/29 02:06:26;;;;;;;0.30;0.20;;;;;;;12.20;67.58;100104.84;5014779;28;20440;-74
2022/05/29 02:09:01;;;;;;;0.30;0.20;;;;;;;12.19;68.51;100110.19;5014552;28;20468;-74
2022/05/29 02:11:30;;;;;;;2.40;2.20;;;;;;;11.81;69.32;100107.19;5014578;28;20491;-74
2022/05/29 02:14:16;;;;;;;0.30;0.20;;;;;;;11.78;69.70;100105.44;5014629;28;20484;-74
2022/05/29 02:17:12;;;;;;;0.60;0.60;;;;;;;11.77;69.84;100109.03;4997323;28;20456;-74
2022/05/29 02:19:48;;;;;;;0.30;0.20;;;;;;;11.69;70.00;100099.63;4988778;28;20548;-76
2022/05/29 02:22:21;;;;;;;0.30;0.20;;;;;;;11.70;70.23;100104.88;5014490;28;20484;-74
2022/05/29 02:24:51;;;;;;;0.30;0.20;;;;;;;11.58;70.48;100095.53;5014987;28;20543;-74
2022/05/29 02:27:28;;;;;;;0.30;0.20;;;;;;;11.48;70.90;100103.91;5015308;28;20456;-74
2022/05/29 02:29:57;;;;;;;0.30;0.20;;;;;;;11.68;70.56;100108.53;5016142;28;20452;-74
2022/05/29 02:32:49;;;;;;;0.30;0.20;;;;;;;11.38;71.44;100092.72;5015360;28;20534;-74
2022/05/29 02:35:29;;;;;;;0.30;0.20;;;;;;;11.51;71.27;100094.03;5009445;28;20488;-74
2022/05/29 02:38:06;;;;;;;0.30;0.20;;;;;;;11.57;72.08;100091.13;5015341;28;20538;-74
2022/05/29 02:40:52;;;;;;;0.30;0.20;;;;;;;11.43;72.26;100093.44;5014014;28;21015;-74
2022/05/29 02:43:22;;;;;;;0.30;0.20;;;;;;;11.51;71.79;100090.47;5014397;28;20539;-75
2022/05/29 02:46:09;;;;;;;0.30;0.20;;;;;;;11.40;72.34;100093.53;5015554;28;20477;-74
2022/05/29 02:48:51;;;;;;;0.30;0.20;;;;;;;11.43;71.79;100079.25;5014652;28;20444;-74
2022/05/29 02:51:29;;;;;;;0.30;0.20;;;;;;;11.39;71.87;100082.94;5003646;28;20499;-74
2022/05/29 02:53:55;;;;;;;0.30;0.20;;;;;;;11.36;72.41;100081.25;5015577;28;20452;-74
2022/05/29 02:56:22;;;;;;;0.30;0.20;;;;;;;11.32;72.06;100074.28;5014965;28;20492;-74
2022/05/29 02:58:54;;;;;;;0.30;0.20;;;;;;;11.27;72.35;100068.28;5014840;28;20526;-74
2022/05/29 03:01:20;;;;;;;0.30;0.20;;;;;;;11.32;72.87;100074.28;4997456;28;20953;-75
2022/05/29 03:04:20;;;;;;;0.30;0.20;;;;;;;11.43;72.23;100073.94;5014844;28;20456;-74
2022/05/29 03:06:56;;;;;;;0.30;0.20;;;;;;;11.48;71.82;100074.63;5013749;28;20484;-75
2022/05/29 03:09:42;;;;;;;0.30;0.20;;;;;;;11.44;72.32;100079.19;4984603;28;20991;-73
2022/05/29 03:12:24;;;;;;;0.40;0.30;;;;;;;11.45;72.28;100069.41;5013489;28;20472;-73
2022/05/29 03:15:15;;;;;;;0.30;0.20;;;;;;;11.47;71.99;100064.91;5013856;28;20562;-73
2022/05/29 03:17:57;;;;;;;0.30;0.20;;;;;;;11.41;72.23;100066.00;4977157;28;20426;-73
2022/05/29 03:20:32;;;;;;;0.30;0.20;;;;;;;11.65;72.08;100063.34;5012574;28;20445;-74
2022/05/29 03:23:10;;;;;;;0.30;0.20;;;;;;;11.60;72.00;100065.31;4995923;28;20530;-73
2022/05/29 03:25:46;;;;;;;0.30;0.20;;;;;;;11.51;71.87;100066.50;5013358;28;20629;-73
2022/05/29 03:28:34;;;;;;;0.30;0.20;;;;;;;11.24;73.25;100063.94;5013648;28;20456;-73
2022/05/29 03:31:06;;;;;;;0.40;0.20;;;;;;;11.37;73.05;100068.81;4996758;28;20452;-73
2022/05/29 03:33:33;;;;;;;0.30;0.20;;;;;;;11.33;73.24;100065.38;5013261;28;20477;-74
2022/05/29 03:36:04;;;;;;;0.30;0.20;;;;;;;11.24;73.42;100079.91;5013824;28;20480;-74
2022/05/29 03:38:31;;;;;;;0.30;0.20;;;;;;;11.31;73.89;100072.56;5013408;28;20453;-74
2022/05/29 03:40:58;;;;;;;1.70;0.90;;;;;;;11.28;73.62;100076.22;4996034;28;20563;-74
2022/05/29 03:43:24;;;;;;;0.30;0.20;;;;;;;11.28;74.29;100075.34;5012308;28;20835;-74
2022/05/29 03:45:51;;;;;;;0.30;0.20;;;;;;;11.40;73.34;100074.03;5013171;28;20481;-74
2022/05/29 03:48:18;;;;;;;0.30;0.20;;;;;;;11.60;73.48;100076.84;5012951;28;20785;-74
2022/05/29 03:50:44;;;;;;;0.30;0.20;;;;;;;11.31;74.02;100077.03;5013102;28;20520;-74
2022/05/29 03:53:11;;;;;;;0.40;0.30;;;;;;;11.33;73.62;100081.34;5013308;28;20475;-74
2022/05/29 03:55:38;;;;;;;0.40;0.30;;;;;;;11.11;74.28;100070.59;5012432;28;20515;-74
2022/05/29 03:58:04;;;;;;;0.30;0.20;;;;;;;11.05;74.53;100068.13;5014950;28;20611;-74
2022/05/29 04:00:31;;;;;;;0.30;0.20;;;;;;;10.88;75.23;100062.53;5014485;28;20478;-73
2022/05/29 04:02:58;;;;;;;0.30;0.20;;;;;;;10.97;75.62;100065.75;5014920;28;20469;-74
2022/05/29 04:05:24;;;;;;;0.30;0.20;;;;;;;11.02;74.93;100068.25;4996056;28;20449;-74
2022/05/29 04:13:27;;;;;;;0.30;0.20;;;;;;;11.00;75.52;100072.75;5014814;28;20530;-74
2022/05/29 04:15:54;;;;;;;0.30;0.20;;;;;;;10.87;76.14;100058.13;4996705;28;20488;-74
2022/05/29 04:18:21;;;;;;;0.30;0.20;;;;;;;10.79;76.35;100066.34;5014623;28;20448;-75
2022/05/29 04:20:53;;;;;;;0.30;0.20;;;;;;;10.81;77.11;100068.97;5014957;28;20977;-75
2022/05/29 04:23:20;;;;;;;0.30;0.20;;;;;;;10.84;77.40;100060.91;4997309;28;20465;-75
2022/05/29 04:25:46;;;;;;;0.30;0.20;;;;;;;10.71;78.30;100052.47;5014479;28;20893;-75
2022/05/29 04:28:13;;;;;;;0.30;0.20;;;;;;;10.77;79.18;100056.69;5013978;28;20467;-75
2022/05/29 04:30:40;;;;;;;0.30;0.20;;;;;;;10.57;81.10;100055.56;5014465;28;20453;-75
2022/05/29 04:33:07;;;;;;;0.30;0.20;;;;;;;10.51;81.93;100061.06;5013942;28;20508;-74
2022/05/29 04:35:47;;;;;;;0.30;0.20;;;;;;;10.70;83.37;100058.69;5014155;28;21047;-73
2022/05/29 04:38:14;;;;;;;0.30;0.20;;;;;;;10.73;83.93;100055.94;4996516;28;20452;-74
2022/05/29 04:40:42;;;;;;;0.30;0.20;;;;;;;10.63;83.34;100052.69;4995605;28;20492;-74
2022/05/29 04:43:11;;;;;;;1.10;1.00;;;;;;;10.59;82.98;100063.50;5011391;28;20859;-75
2022/05/29 04:45:40;;;;;;;0.30;0.20;;;;;;;10.59;82.71;100059.03;4995807;28;20514;-74
2022/05/29 04:48:07;;;;;;;0.30;0.20;;;;;;;10.52;84.78;100057.47;5014013;28;20461;-74
2022/05/29 04:50:36;;;;;;;0.30;0.20;;;;;;;10.46;85.59;100060.34;5014166;28;20822;-74
2022/05/29 04:53:03;;;;;;;0.30;0.20;;;;;;;10.38;86.47;100065.91;5014536;28;20469;-74
2022/05/29 04:55:30;;;;;;;0.30;0.20;;;;;;;10.64;86.35;100057.09;5013102;28;20495;-74
2022/05/29 04:57:57;;;;;;;0.30;0.20;;;;;;;10.67;87.13;100056.97;5012852;28;20507;-74
2022/05/29 05:00:24;;;;;;;0.30;0.20;;;;;;;10.58;86.23;100059.09;5011686;28;20457;-74
2022/05/29 05:02:51;;;;;;;0.30;0.20;;;;;;;10.54;85.94;100052.13;5013517;28;20468;-74
2022/05/29 05:05:18;;;;;;;0.30;0.20;;;;;;;10.58;84.93;100054.66;5013245;28;20453;-74
2022/05/29 05:07:44;;;;;;;0.30;0.20;;;;;;;10.42;84.43;100053.41;4998594;28;20445;-73
2022/05/29 05:10:15;;;;;;;0.30;0.20;;;;;;;10.49;85.01;100052.28;5017528;28;20514;-74
2022/05/29 05:12:42;;;;;;;0.30;0.20;;;;;;;10.33;84.67;100056.34;5017788;28;20475;-74
2022/05/29 05:15:11;;;;;;;0.30;0.20;;;;;;;10.33;84.78;100057.22;5017690;28;20550;-74
2022/05/29 05:17:38;;;;;;;0.30;0.20;;;;;;;10.32;84.54;100034.22;5000027;28;20452;-74
2022/05/29 05:20:06;;;;;;;0.30;0.20;;;;;;;10.43;84.05;100041.00;5017185;28;20510;-74
2022/05/29 05:22:33;;;;;;;0.30;0.20;;;;;;;10.42;83.88;100041.91;5017046;28;20480;-75
2022/05/29 05:25:01;;;;;;;0.30;0.20;;;;;;;10.63;83.38;100038.53;5017372;28;20460;-76
2022/05/29 05:27:28;;;;;;;0.30;0.20;;;;;;;10.93;82.23;100048.16;5017281;28;20460;-75
2022/05/29 05:29:54;;;;;;;0.30;0.20;;;;;;;11.14;81.19;100041.22;5016408;28;20460;-75
2022/05/29 05:32:21;;;;;;;0.30;0.20;;;;;;;11.60;79.21;100044.03;5016649;28;20472;-75
2022/05/29 05:34:48;;;;;;;0.30;0.20;;;;;;;11.73;78.15;100038.19;4998841;28;20503;-74
2022/05/29 05:37:16;;;;;;;0.30;0.20;;;;;;;12.46;75.78;100042.50;5015848;28;20543;-75
2022/05/29 05:39:43;;;;;;;0.30;0.20;;;;;;;12.60;74.81;100041.94;5014625;28;20486;-75
2022/05/29 05:42:09;;;;;;;0.30;0.20;;;;;;;12.82;73.54;100041.91;5014812;28;20535;-74
2022/05/29 05:44:37;;;;;;;0.30;0.20;;;;;;;13.11;72.40;100048.69;5015103;28;20614;-75
2022/05/29 05:47:03;;;;;;;0.30;0.20;;;;;;;13.17;71.16;100035.09;4997797;28;20441;-74
2022/05/29 05:49:30;;;;;;;0.30;0.20;;;;;;;13.37;70.28;100037.78;5014645;28;20526;-78
2022/05/29 05:52:00;;;;;;;0.30;0.20;;;;;;;12.74;71.89;100051.09;5014415;28;20476;-74
2022/05/29 05:54:31;;;;;;;0.30;0.20;;;;;;;12.49;73.40;100057.53;4997665;28;20507;-75
2022/05/29 05:56:58;;;;;;;0.30;0.20;;;;;;;12.31;74.29;100053.75;5014805;28;20489;-77
2022/05/29 05:59:25;;;;;;;0.30;0.20;;;;;;;12.23;74.43;100055.88;5012451;28;20831;-75
2022/05/29 06:01:53;;;;;;;0.30;0.20;;;;;;;12.54;73.69;100052.84;5016089;28;20485;-76
2022/05/29 06:04:20;;;;;;;0.30;0.20;;;;;;;12.97;72.48;100054.63;4998579;28;20526;-74
2022/05/29 06:06:47;;;;;;;0.30;0.20;;;;;;;12.97;71.55;100050.16;5014491;28;20485;-75
2022/05/29 06:09:13;;;;;;;0.63;0.63;;;;;;;13.07;70.20;100050.63;5014297;28;20460;-74
2022/05/29 06:11:40;;;;;;;0.30;0.20;;;;;;;13.92;68.27;100045.97;5014154;28;20946;-74
2022/05/29 06:14:07;;;;;;;0.30;0.20;;;;;;;14.06;67.64;100048.00;5010592;28;20523;-74
2022/05/29 06:16:35;;;;;;;0.30;0.20;;;;;;;13.43;69.27;100052.66;4996450;28;20913;-74
2022/05/29 06:19:04;;;;;;;0.30;0.20;;;;;;;13.75;68.37;100056.59;5013430;28;20457;-74
2022/05/29 06:21:32;;;;;;;0.30;0.20;;;;;;;13.66;69.21;100049.84;5013976;28;20456;-74
2022/05/29 06:23:59;;;;;;;0.30;0.20;;;;;;;13.55;67.88;100046.78;5013816;28;20461;-74
2022/05/29 06:26:25;;;;;;;0.80;0.73;;;;;;;13.60;67.48;100050.13;5013618;28;20476;-74
2022/05/29 06:28:52;;;;;;;0.30;0.20;;;;;;;13.76;68.02;100040.47;4996716;28;20873;-74
2022/05/29 06:31:19;;;;;;;0.30;0.20;;;;;;;14.05;66.51;100041.81;5013604;28;20530;-74
2022/05/29 06:33:46;;;;;;;0.30;0.30;;;;;;;14.22;65.53;100054.38;5015710;28;20548;-74
2022/05/29 06:36:18;;;;;;;0.30;0.20;;;;;;;13.70;65.66;100053.22;5014892;28;20480;-75
2022/05/29 06:38:46;;;;;;;0.30;0.20;;;;;;;13.44;65.99;100043.75;4998579;28;20456;-79
2022/05/29 06:41:15;;;;;;;0.30;0.20;;;;;;;13.55;65.99;100042.31;5015907;28;20834;-79
2022/05/29 06:43:42;;;;;;;0.30;0.20;;;;;;;13.58;67.63;100050.19;5016644;28;20482;-79
2022/05/29 06:46:10;;;;;;;0.30;0.20;;;;;;;13.67;66.01;100042.69;5014972;28;20467;-79
2022/05/29 06:48:40;;;;;;;0.30;0.20;;;;;;;13.78;65.19;100043.94;5015047;28;20810;-79
2022/05/29 06:51:21;;;;;;;0.30;0.20;;;;;;;14.06;65.33;100038.19;5014646;28;20468;-79
2022/05/29 06:53:50;;;;;;;0.30;0.20;;;;;;;14.16;64.58;100036.81;4997467;28;20844;-79
2022/05/29 06:56:17;;;;;;;0.30;0.20;;;;;;;14.43;63.56;100044.47;5014652;28;20631;-79
2022/05/29 06:58:44;;;;;;;0.30;0.20;;;;;;;14.66;63.18;100036.19;4997305;28;21024;-78
2022/05/29 07:06:59;;;;;;;0.30;0.20;;;;;;;14.19;63.33;100042.00;5014390;28;20463;-78
2022/05/29 07:09:46;;;;;;;0.30;0.20;;;;;;;14.44;61.68;100041.75;5014028;28;20475;-78
2022/05/29 07:12:22;;;;;;;2.97;0.67;;;;;;;14.63;61.50;100044.38;5014059;28;20457;-78
2022/05/29 07:14:52;;;;;;;0.30;0.20;;;;;;;14.82;61.77;100050.56;4996570;28;20449;-78
2022/05/29 07:17:19;;;;;;;3.40;1.70;;;;;;;14.77;60.84;100039.22;5011922;28;20485;-78
2022/05/29 07:19:46;;;;;;;0.40;0.20;;;;;;;14.75;61.23;100043.78;5014285;28;20544;-78
2022/05/29 07:22:13;;;;;;;0.30;0.20;;;;;;;14.88;60.71;100041.34;4996442;28;20473;-78
2022/05/29 07:24:40;;;;;;;0.30;0.20;;;;;;;15.04;59.56;100039.63;4997742;28;20518;-78
2022/05/29 07:27:07;;;;;;;2.63;0.50;;;;;;;15.14;59.66;100048.06;5014411;28;20488;-78
2022/05/29 07:29:35;;;;;;;0.30;0.20;;;;;;;15.02;60.02;100043.34;4997420;28;20444;-78
2022/05/29 07:32:03;;;;;;;0.30;0.20;;;;;;;15.39;58.78;100048.53;5014303;28;20844;-78
2022/05/29 07:34:30;;;;;;;0.30;0.20;;;;;;;15.10;57.93;100036.66;4997141;28;20449;-78
2022/05/29 07:37:07;;;;;;;0.30;0.20;;;;;;;15.87;56.85;100041.53;5014505;28;20515;-77
2022/05/29 07:39:43;;;;;;;0.40;0.20;;;;;;;15.30;59.48;100040.97;5015362;28;20456;-78
2022/05/29 07:44:56;;;;;;;0.30;0.20;;;;;;;15.45;59.96;100041.97;5007938;28;20460;-78
2022/05/29 07:47:27;;;;;;;0.30;0.20;;;;;;;15.41;57.71;100033.25;5013975;28;20942;-78
2022/05/29 07:49:57;;;;;;;0.40;0.20;;;;;;;16.16;56.00;100041.75;5014852;28;20461;-78
2022/05/29 07:52:25;;;;;;;0.40;0.20;;;;;;;16.53;54.05;100033.34;5013792;28;20483;-78
2022/05/29 07:54:52;;;;;;;0.40;0.20;;;;;;;15.07;56.13;100036.78;5004111;28;20507;-78
2022/05/29 07:57:19;;;;;;;0.47;0.47;;;;;;;15.09;57.39;100042.97;5012058;28;20496;-77
2022/05/29 07:59:46;;;;;;;0.40;0.20;;;;;;;14.68;59.43;100042.38;5013154;28;20464;-78
2022/05/29 08:02:12;;;;;;;0.40;0.20;;;;;;;15.08;57.91;100035.88;5013468;28;20479;-78
2022/05/29 08:04:40;;;;;;;0.30;0.20;;;;;;;14.99;56.05;100041.69;5013488;28;20456;-78
2022/05/29 08:07:07;;;;;;;0.30;0.20;;;;;;;15.15;55.14;100043.59;5012942;28;20491;-78
2022/05/29 08:09:33;;;;;;;0.30;0.20;;;;;;;15.03;53.85;100037.91;5013993;28;20452;-78
2022/05/29 08:12:00;;;;;;;0.30;0.20;;;;;;;15.07;55.40;100041.28;5013136;28;20480;-78
2022/05/29 08:14:29;;;;;;;0.30;0.20;;;;;;;14.92;53.15;100045.59;5013050;28;21003;-78
2022/05/29 08:16:56;;;;;;;0.30;0.20;;;;;;;14.96;53.84;100040.97;4996224;28;20993;-78
2022/05/29 08:19:23;;;;;;;0.30;0.20;;;;;;;15.23;52.31;100028.88;5013390;28;20448;-78
2022/05/29 08:21:50;;;;;;;1.70;1.20;;;;;;;14.69;52.57;100035.19;4995857;28;20468;-78
2022/05/29 08:30:43;;;;;;;0.30;0.20;;;;;;;15.18;49.64;100043.41;5001492;28;20802;-78
2022/05/29 08:33:16;;;;;;;0.30;0.20;;;;;;;15.44;48.47;100034.03;5013516;28;20511;-78
2022/05/29 08:35:46;;;;;;;0.30;0.20;;;;;;;15.45;49.07;100028.59;4996706;28;20452;-78
2022/05/29 08:38:15;;;;;;;0.30;0.20;;;;;;;15.18;50.55;100046.09;5013966;28;20456;-78
2022/05/29 08:40:57;;;;;;;0.30;0.20;;;;;;;15.33;50.63;100027.41;4994623;28;20453;-77
2022/05/29 08:44:00;;;;;;;0.30;0.20;;;;;;;15.55;51.00;100028.97;5014812;28;20492;-78
2022/05/29 08:46:36;;;;;;;0.30;0.20;;;;;;;15.60;53.35;100034.97;4994030;28;20530;-78
2022/05/29 08:49:03;;;;;;;0.30;0.20;;;;;;;15.57;52.05;100037.78;5016480;28;20452;-78
2022/05/29 08:52:00;;;;;;;0.30;0.20;;;;;;;15.48;55.07;100033.78;5016491;28;20491;-78
2022/05/29 08:54:33;;;;;;;1.53;1.47;;;;;;;15.57;53.21;100027.94;5016770;28;20523;-79
2022/05/29 08:57:09;;;;;;;0.30;0.20;;;;;;;14.99;54.85;100028.31;4999917;28;20510;-78
2022/05/29 08:59:58;;;;;;;0.30;0.20;;;;;;;15.00;54.41;100026.50;4999865;28;20591;-78
2022/05/29 09:02:25;;;;;;;0.30;0.20;;;;;;;14.51;54.22;100024.44;4997360;28;20476;-79
2022/05/29 09:05:00;;;;;;;0.30;0.20;;;;;;;14.89;51.63;100019.00;4999755;28;20859;-78
2022/05/29 09:07:32;;;;;;;0.30;0.20;;;;;;;15.55;50.37;100007.53;5017101;28;20803;-78
2022/05/29 09:10:10;;;;;;;0.30;0.20;;;;;;;15.99;47.97;100013.19;4999986;28;20499;-78
2022/05/29 09:12:42;;;;;;;0.30;0.20;;;;;;;16.28;47.97;100007.06;4989875;28;20538;-78
2022/05/29 09:15:14;;;;;;;0.30;0.20;;;;;;;16.67;47.21;100008.44;5017593;28;21028;-78
2022/05/29 09:17:51;;;;;;;0.30;0.20;;;;;;;16.74;48.06;100015.19;5017433;28;20538;-78
2022/05/29 09:20:30;;;;;;;0.30;0.20;;;;;;;16.32;48.83;100013.13;5017795;28;21031;-78
2022/05/29 09:22:59;;;;;;;0.30;0.20;;;;;;;16.13;51.02;99999.88;4998845;28;20472;-77
2022/05/29 09:25:33;;;;;;;0.70;0.70;;;;;;;15.45;50.63;100008.97;4999361;28;20472;-78
2022/05/29 09:28:07;;;;;;;0.30;0.20;;;;;;;15.94;49.08;100015.28;4998821;28;20468;-78
2022/05/29 09:30:34;;;;;;;0.30;0.20;;;;;;;15.80;48.84;100007.97;4999277;28;20456;-78
2022/05/29 09:33:08;;;;;;;0.30;0.20;;;;;;;16.09;47.48;100000.16;5016531;28;20555;-78
2022/05/29 09:35:39;;;;;;;0.40;0.20;;;;;;;16.21;45.71;100003.00;4990440;28;20984;-77
2022/05/29 09:38:30;;;;;;;0.40;0.20;;;;;;;15.72;45.89;99998.63;5016734;28;20492;-78
2022/05/29 09:41:13;;;;;;;0.40;0.30;;;;;;;16.68;44.41;99986.00;5016242;28;20507;-78
2022/05/29 09:44:13;;;;;;;0.40;0.30;;;;;;;17.47;42.82;99991.09;5007565;28;20516;-78
2022/05/29 09:46:42;;;;;;;0.37;0.20;;;;;;;17.40;44.08;99984.34;4995592;28;20456;-78
2022/05/29 09:49:45;;;;;;;0.40;0.20;;;;;;;17.23;43.65;99987.22;5016624;28;20448;-78
2022/05/29 09:52:33;;;;;;;0.40;0.20;;;;;;;16.86;44.08;99986.78;4998498;28;20472;-77
2022/05/29 09:55:22;;;;;;;0.50;0.50;;;;;;;17.03;43.88;99988.44;4998145;28;20457;-78
2022/05/29 09:57:52;;;;;;;0.37;0.20;;;;;;;16.99;42.64;99994.94;5003344;28;20515;-77
2022/05/29 10:00:36;;;;;;;0.40;0.20;;;;;;;16.86;42.67;99987.63;5015512;28;20511;-77
2022/05/29 10:03:06;;;;;;;0.40;0.20;;;;;;;16.72;41.80;99982.22;5015692;28;20900;-77
2022/05/29 10:05:38;;;;;;;0.40;0.20;;;;;;;16.78;41.70;99987.22;5015042;28;20511;-77
2022/05/29 10:08:27;;;;;;;0.30;0.20;;;;;;;16.97;40.75;99967.31;5015968;28;20445;-77
2022/05/29 10:10:54;;;;;;;0.30;0.20;;;;;;;16.75;41.09;99973.97;4998165;28;21024;-77
2022/05/29 10:13:36;;;;;;;0.40;0.20;;;;;;;17.15;41.90;99971.59;5014545;28;20989;-77
2022/05/29 10:16:03;;;;;;;0.93;0.93;;;;;;;17.79;41.27;99962.22;5005991;28;21020;-76
2022/05/29 10:18:34;;;;;;;0.40;0.20;;;;;;;18.12;40.22;99959.22;4996926;28;20440;-77
2022/05/29 10:21:23;;;;;;;0.40;0.20;;;;;;;18.34;40.43;99956.81;5005707;28;20815;-76
2022/05/29 10:24:09;;;;;;;0.40;0.20;;;;;;;18.42;40.99;99959.03;5013695;28;20460;-77
2022/05/29 10:26:36;;;;;;;0.40;0.30;;;;;;;17.54;40.41;99957.50;5013690;28;20465;-77
2022/05/29 10:29:15;;;;;;;0.40;0.30;;;;;;;17.52;39.72;99963.94;5014310;28;20548;-77
2022/05/29 10:31:46;;;;;;;0.40;0.20;;;;;;;17.32;39.99;99965.19;4996423;28;20477;-77
2022/05/29 10:34:20;;;;;;;0.40;0.30;;;;;;;16.77;40.55;99955.09;4996706;28;20449;-77
2022/05/29 10:36:47;;;;;;;0.40;0.20;;;;;;;16.05;40.21;99964.59;4997034;28;20523;-76
2022/05/29 10:39:28;;;;;;;0.40;0.20;;;;;;;16.48;39.42;99951.41;4996477;28;20456;-76
2022/05/29 10:42:01;;;;;;;0.40;0.30;;;;;;;16.44;38.99;99952.53;5013269;28;20480;-77
2022/05/29 10:44:42;;;;;;;0.40;0.30;;;;;;;16.94;37.75;99944.19;5013640;28;20457;-77
2022/05/29 10:47:36;;;;;;;0.40;0.20;;;;;;;16.96;39.03;99946.78;4996497;28;20821;-77
2022/05/29 10:50:14;;;;;;;0.40;0.20;;;;;;;17.39;38.81;99931.59;5003534;28;20440;-76
2022/05/29 10:53:09;;;;;;;0.40;0.30;;;;;;;17.46;36.42;99935.63;5001074;28;20571;-77
2022/05/29 10:55:47;;;;;;;0.40;0.20;;;;;;;17.72;34.27;99925.94;5012767;28;21085;-77
2022/05/29 10:58:42;;;;;;;0.70;0.70;;;;;;;17.07;37.35;99930.91;4987341;28;20492;-77
2022/05/29 11:04:50;;;;;;;0.40;0.20;;;;;;;17.19;39.00;99927.47;5013114;28;20460;-77
2022/05/29 11:07:17;;;;;;;0.50;0.50;;;;;;;17.29;38.26;99927.75;5011498;28;20457;-77
2022/05/29 11:10:20;;;;;;;0.40;0.20;;;;;;;17.90;37.23;99924.75;5013282;28;20522;-77
2022/05/29 11:13:01;;;;;;;0.40;0.20;;;;;;;18.30;36.44;99917.63;5012488;28;20479;-77
2022/05/29 11:16:17;;;;;;;0.40;0.20;;;;;;;18.23;35.73;99913.63;4995278;28;20542;-77
2022/05/29 11:19:21;;;;;;;0.40;0.40;;;;;;;18.57;34.57;99916.75;4940369;29;20464;-77
2022/05/29 11:21:48;;;;;;;0.40;0.30;;;;;;;18.38;35.05;99910.91;5013599;28;20886;-77
2022/05/29 11:24:59;;;;;;;0.40;0.20;;;;;;;17.60;38.62;99898.00;4995614;28;20514;-79
2022/05/29 11:27:40;;;;;;;0.67;0.67;;;;;;;17.14;39.62;99910.78;4947309;28;20498;-77
2022/05/29 11:30:15;;;;;;;0.40;0.20;;;;;;;16.61;39.19;99911.31;4993134;28;20488;-77
2022/05/29 11:33:06;;;;;;;0.40;0.20;;;;;;;16.80;40.41;99901.22;5012314;28;20511;-76
2022/05/29 11:35:54;;;;;;;0.40;0.20;;;;;;;16.74;39.86;99899.78;5012920;28;20445;-77
2022/05/29 11:38:36;;;;;;;1.53;1.03;;;;;;;17.03;38.84;99903.38;4995124;28;21017;-77
2022/05/29 11:42:05;;;;;;;0.40;0.20;;;;;;;16.90;39.70;99898.84;5012787;28;20456;-77
2022/05/29 11:44:43;;;;;;;0.40;0.20;;;;;;;16.68;39.82;99893.91;4978854;28;20448;-77
2022/05/29 11:53:19;;;;;;;0.30;0.20;;;;;;;17.20;39.26;99874.59;5004916;28;20472;-77
2022/05/29 11:55:49;;;;;;;0.40;0.30;;;;;;;17.60;37.83;99863.03;5012565;28;20461;-76
2022/05/29 11:58:30;;;;;;;2.40;2.30;;;;;;;18.50;38.68;99858.91;5012386;28;20493;-77
2022/05/29 12:01:01;;;;;;;0.40;0.20;;;;;;;18.82;38.51;99864.81;4994695;28;20878;-77
2022/05/29 12:03:44;;;;;;;0.40;0.30;;;;;;;18.05;37.54;99858.34;5012128;28;20527;-77
2022/05/29 12:06:31;;;;;;;0.40;0.20;;;;;;;17.89;37.52;99858.50;4994410;28;20453;-77
2022/05/29 12:09:20;;;;;;;0.40;0.20;;;;;;;17.15;39.48;99864.16;5012904;28;20460;-77
2022/05/29 12:12:14;;;;;;;0.40;0.20;;;;;;;16.65;42.39;99868.06;4995023;28;20550;-77
2022/05/29 12:14:46;;;;;;;0.40;0.30;;;;;;;16.59;43.03;99857.72;4995394;28;20495;-76
2022/05/29 12:17:30;;;;;;;27.57;0.97;;;;;;;16.65;43.73;99854.66;5013721;28;20524;-77
2022/05/29 12:20:11;;;;;;;0.47;0.37;;;;;;;17.00;42.54;99860.59;5016466;28;20534;-77
2022/05/29 12:22:57;;;;;;;0.40;0.20;;;;;;;17.47;41.49;99845.97;5016465;28;20487;-77
2022/05/29 12:25:45;;;;;;;0.63;0.63;;;;;;;17.44;39.75;99847.06;5009592;28;20823;-77
2022/05/29 12:28:35;;;;;;;0.40;0.20;;;;;;;17.74;38.64;99843.38;4999411;28;20885;-77
2022/05/29 12:31:03;;;;;;;0.40;0.20;;;;;;;18.24;39.77;99847.22;4996358;28;20462;-77